Main page
METAR-TAF:

METAR-TAF

Airports :

Le Luc – Le Cannet Airport

Le Luc, France

latitude: 43-23N, longitude: 006-23E, elevation: 80 m

Current weather observation

The report was made 27 minutes ago, at 14:00 UTC
Wind 11 kt from the East/Southeast, varying between East/Northeast and South/Southeast
Temperature 28°C
Humidity 48%
Pressure 1016 hPa
Visibility 10 km or more

METAR: LFMC 171400Z AUTO 11011KT 060V160 9999 ////// 28/16 Q1016

Time: 16:27 (14:27 UTC)


TAF: missing

Weather observations and forecasts of more than 4000 airports (METAR and TAF reports).

The available stations are represented by yellow and red dots on the map.

Hover mouse over dot to see the name of the station.

Then click to see weather observations and forecasts.

To change the map : click on the green buttons with a black cross to zoom in, on the green button with a dash to zoom out, or on the green arrows for adjacent maps.


METAR-TAF: